sensor_id;sensor_type;location;lat;lon;timestamp;P1;durP1;ratioP1;P2;durP2;ratioP2
215;SDS011;70668;48.81286795;9.14184224;2023-10-08T00:01:10;9.90;;;5.17;;
215;SDS011;70668;48.81286795;9.14184224;2023-10-08T00:03:39;12.70;;;5.20;;
215;SDS011;70668;48.81286795;9.14184224;2023-10-08T00:06:13;11.17;;;5.00;;
215;SDS011;70668;48.81286795;9.14184224;2023-10-08T00:08:44;12.67;;;5.20;;
215;SDS011;70668;48.81286795;9.14184224;2023-10-08T00:11:13;12.23;;;4.90;;
215;SDS011;70668;48.81286795;9.14184224;2023-10-08T00:13:42;8.93;;;4.50;;
215;SDS011;70668;48.81286795;9.14184224;2023-10-08T00:16:16;9.60;;;4.60;;
215;SDS011;70668;48.81286795;9.14184224;2023-10-08T00:18:47;13.00;;;4.80;;
215;SDS011;70668;48.81286795;9.14184224;2023-10-08T00:21:17;9.37;;;4.73;;
215;SDS011;70668;48.81286795;9.14184224;2023-10-08T00:23:51;9.17;;;4.47;;
215;SDS011;70668;48.81286795;9.14184224;2023-10-08T00:26:23;10.30;;;4.90;;
215;SDS011;70668;48.81286795;9.14184224;2023-10-08T00:28:56;10.27;;;4.57;;
215;SDS011;70668;48.81286795;9.14184224;2023-10-08T00:31:28;8.90;;;4.50;;
215;SDS011;70668;48.81286795;9.14184224;2023-10-08T00:34:03;11.37;;;4.53;;
215;SDS011;70668;48.81286795;9.14184224;2023-10-08T00:36:36;11.80;;;4.57;;
215;SDS011;70668;48.81286795;9.14184224;2023-10-08T00:39:06;9.00;;;4.23;;
215;SDS011;70668;48.81286795;9.14184224;2023-10-08T00:41:39;9.80;;;4.43;;
215;SDS011;70668;48.81286795;9.14184224;2023-10-08T00:44:09;12.20;;;4.60;;
215;SDS011;70668;48.81286795;9.14184224;2023-10-08T00:46:44;9.43;;;4.70;;
215;SDS011;70668;48.81286795;9.14184224;2023-10-08T00:49:16;9.70;;;4.70;;
215;SDS011;70668;48.81286795;9.14184224;2023-10-08T00:52:05;9.43;;;4.40;;
215;SDS011;70668;48.81286795;9.14184224;2023-10-08T00:54:52;10.07;;;4.73;;
215;SDS011;70668;48.81286795;9.14184224;2023-10-08T00:57:32;11.47;;;4.37;;
215;SDS011;70668;48.81286795;9.14184224;2023-10-08T01:00:07;10.60;;;4.87;;
215;SDS011;70668;48.81286795;9.14184224;2023-10-08T01:02:45;11.10;;;4.87;;
215;SDS011;70668;48.81286795;9.14184224;2023-10-08T01:05:20;13.23;;;5.33;;
215;SDS011;70668;48.81286795;9.14184224;2023-10-08T01:08:07;13.97;;;5.17;;
215;SDS011;70668;48.81286795;9.14184224;2023-10-08T01:10:37;12.33;;;5.13;;
215;SDS011;70668;48.81286795;9.14184224;2023-10-08T01:13:08;13.80;;;5.23;;
215;SDS011;70668;48.81286795;9.14184224;2023-10-08T01:15:44;14.07;;;6.30;;
215;SDS011;70668;48.81286795;9.14184224;2023-10-08T01:18:18;15.63;;;6.70;;
215;SDS011;70668;48.81286795;9.14184224;2023-10-08T01:20:56;12.03;;;6.30;;
215;SDS011;70668;48.81286795;9.14184224;2023-10-08T01:23:36;15.40;;;6.13;;
215;SDS011;70668;48.81286795;9.14184224;2023-10-08T01:26:05;11.93;;;5.90;;
215;SDS011;70668;48.81286795;9.14184224;2023-10-08T01:28:40;12.30;;;6.00;;
215;SDS011;70668;48.81286795;9.14184224;2023-10-08T01:31:09;13.80;;;5.73;;
215;SDS011;70668;48.81286795;9.14184224;2023-10-08T01:33:38;11.83;;;5.33;;
215;SDS011;70668;48.81286795;9.14184224;2023-10-08T01:36:12;12.80;;;5.30;;
215;SDS011;70668;48.81286795;9.14184224;2023-10-08T01:38:44;12.03;;;5.17;;
215;SDS011;70668;48.81286795;9.14184224;2023-10-08T01:41:13;11.50;;;5.13;;
215;SDS011;70668;48.81286795;9.14184224;2023-10-08T01:43:54;9.60;;;5.00;;
215;SDS011;70668;48.81286795;9.14184224;2023-10-08T01:46:23;11.77;;;5.60;;
215;SDS011;70668;48.81286795;9.14184224;2023-10-08T01:48:53;11.90;;;5.10;;
215;SDS011;70668;48.81286795;9.14184224;2023-10-08T01:51:29;9.00;;;4.60;;
215;SDS011;70668;48.81286795;9.14184224;2023-10-08T01:54:12;13.43;;;4.60;;
215;SDS011;70668;48.81286795;9.14184224;2023-10-08T01:56:43;11.03;;;5.07;;
215;SDS011;70668;48.81286795;9.14184224;2023-10-08T01:59:13;12.70;;;5.40;;
215;SDS011;70668;48.81286795;9.14184224;2023-10-08T02:01:43;11.03;;;5.10;;
215;SDS011;70668;48.81286795;9.14184224;2023-10-08T02:04:11;11.47;;;5.20;;
215;SDS011;70668;48.81286795;9.14184224;2023-10-08T02:06:41;11.23;;;5.40;;
215;SDS011;70668;48.81286795;9.14184224;2023-10-08T02:09:13;10.20;;;5.20;;
215;SDS011;70668;48.81286795;9.14184224;2023-10-08T02:11:45;12.17;;;5.30;;
215;SDS011;70668;48.81286795;9.14184224;2023-10-08T02:14:18;14.90;;;6.00;;
215;SDS011;70668;48.81286795;9.14184224;2023-10-08T02:16:48;16.47;;;6.17;;
215;SDS011;70668;48.81286795;9.14184224;2023-10-08T02:19:20;16.27;;;6.37;;
215;SDS011;70668;48.81286795;9.14184224;2023-10-08T02:21:52;16.70;;;5.50;;
215;SDS011;70668;48.81286795;9.14184224;2023-10-08T02:24:23;12.13;;;5.70;;
215;SDS011;70668;48.81286795;9.14184224;2023-10-08T02:26:55;11.40;;;5.80;;
215;SDS011;70668;48.81286795;9.14184224;2023-10-08T02:29:25;11.80;;;5.83;;
215;SDS011;70668;48.81286795;9.14184224;2023-10-08T02:31:55;11.30;;;5.03;;
215;SDS011;70668;48.81286795;9.14184224;2023-10-08T02:34:21;11.90;;;5.40;;
215;SDS011;70668;48.81286795;9.14184224;2023-10-08T02:36:49;12.33;;;5.40;;
215;SDS011;70668;48.81286795;9.14184224;2023-10-08T02:39:19;12.40;;;5.47;;
215;SDS011;70668;48.81286795;9.14184224;2023-10-08T02:41:53;10.80;;;5.20;;
215;SDS011;70668;48.81286795;9.14184224;2023-10-08T02:44:25;11.70;;;5.17;;
215;SDS011;70668;48.81286795;9.14184224;2023-10-08T02:46:53;13.00;;;4.80;;
215;SDS011;70668;48.81286795;9.14184224;2023-10-08T02:49:22;12.80;;;5.20;;
215;SDS011;70668;48.81286795;9.14184224;2023-10-08T02:51:51;10.20;;;5.00;;
215;SDS011;70668;48.81286795;9.14184224;2023-10-08T02:54:21;11.73;;;5.30;;
215;SDS011;70668;48.81286795;9.14184224;2023-10-08T02:56:59;13.43;;;5.13;;
215;SDS011;70668;48.81286795;9.14184224;2023-10-08T02:59:29;11.40;;;5.20;;
215;SDS011;70668;48.81286795;9.14184224;2023-10-08T03:02:04;13.77;;;5.80;;
215;SDS011;70668;48.81286795;9.14184224;2023-10-08T03:04:39;12.17;;;5.20;;
215;SDS011;70668;48.81286795;9.14184224;2023-10-08T03:07:10;13.80;;;5.30;;
215;SDS011;70668;48.81286795;9.14184224;2023-10-08T03:09:47;11.43;;;4.70;;
215;SDS011;70668;48.81286795;9.14184224;2023-10-08T03:12:31;15.40;;;5.27;;
215;SDS011;70668;48.81286795;9.14184224;2023-10-08T03:15:00;12.00;;;5.20;;
215;SDS011;70668;48.81286795;9.14184224;2023-10-08T03:17:38;12.47;;;4.83;;
215;SDS011;70668;48.81286795;9.14184224;2023-10-08T03:20:14;11.77;;;4.90;;
215;SDS011;70668;48.81286795;9.14184224;2023-10-08T03:22:55;10.80;;;5.00;;
215;SDS011;70668;48.81286795;9.14184224;2023-10-08T03:25:25;11.97;;;5.20;;
215;SDS011;70668;48.81286795;9.14184224;2023-10-08T03:27:56;10.93;;;4.60;;
215;SDS011;70668;48.81286795;9.14184224;2023-10-08T03:30:25;10.13;;;5.10;;
215;SDS011;70668;48.81286795;9.14184224;2023-10-08T03:32:54;12.07;;;5.20;;
215;SDS011;70668;48.81286795;9.14184224;2023-10-08T03:35:25;11.07;;;5.30;;
215;SDS011;70668;48.81286795;9.14184224;2023-10-08T03:38:02;10.53;;;4.63;;
215;SDS011;70668;48.81286795;9.14184224;2023-10-08T03:40:46;11.77;;;4.80;;
215;SDS011;70668;48.81286795;9.14184224;2023-10-08T03:43:18;11.87;;;5.20;;
215;SDS011;70668;48.81286795;9.14184224;2023-10-08T03:45:59;10.80;;;4.73;;
215;SDS011;70668;48.81286795;9.14184224;2023-10-08T03:48:31;9.20;;;4.80;;
215;SDS011;70668;48.81286795;9.14184224;2023-10-08T03:51:02;8.93;;;4.33;;
215;SDS011;70668;48.81286795;9.14184224;2023-10-08T03:53:37;18.13;;;5.27;;
215;SDS011;70668;48.81286795;9.14184224;2023-10-08T03:56:22;9.07;;;4.30;;
215;SDS011;70668;48.81286795;9.14184224;2023-10-08T03:58:57;9.67;;;4.60;;
215;SDS011;70668;48.81286795;9.14184224;2023-10-08T04:01:29;13.13;;;5.00;;
215;SDS011;70668;48.81286795;9.14184224;2023-10-08T04:04:00;13.43;;;4.90;;
215;SDS011;70668;48.81286795;9.14184224;2023-10-08T04:06:28;11.47;;;4.67;;
215;SDS011;70668;48.81286795;9.14184224;2023-10-08T04:09:03;10.23;;;5.00;;
215;SDS011;70668;48.81286795;9.14184224;2023-10-08T04:11:49;9.23;;;4.40;;
215;SDS011;70668;48.81286795;9.14184224;2023-10-08T04:14:24;9.50;;;4.50;;
215;SDS011;70668;48.81286795;9.14184224;2023-10-08T04:16:53;12.80;;;4.53;;
215;SDS011;70668;48.81286795;9.14184224;2023-10-08T04:19:24;14.57;;;5.00;;
215;SDS011;70668;48.81286795;9.14184224;2023-10-08T04:21:54;12.40;;;4.53;;
215;SDS011;70668;48.81286795;9.14184224;2023-10-08T04:24:25;11.10;;;4.70;;
215;SDS011;70668;48.81286795;9.14184224;2023-10-08T04:27:00;13.53;;;4.93;;
215;SDS011;70668;48.81286795;9.14184224;2023-10-08T04:29:37;14.63;;;5.20;;
215;SDS011;70668;48.81286795;9.14184224;2023-10-08T04:32:07;12.53;;;5.23;;
215;SDS011;70668;48.81286795;9.14184224;2023-10-08T04:34:38;10.60;;;5.10;;
215;SDS011;70668;48.81286795;9.14184224;2023-10-08T04:37:10;10.90;;;4.80;;
215;SDS011;70668;48.81286795;9.14184224;2023-10-08T04:39:45;8.57;;;4.33;;
215;SDS011;70668;48.81286795;9.14184224;2023-10-08T04:42:23;18.63;;;5.20;;
215;SDS011;70668;48.81286795;9.14184224;2023-10-08T04:44:56;12.10;;;5.10;;
215;SDS011;70668;48.81286795;9.14184224;2023-10-08T04:47:24;14.13;;;5.20;;
215;SDS011;70668;48.81286795;9.14184224;2023-10-08T04:50:00;12.37;;;5.60;;
215;SDS011;70668;48.81286795;9.14184224;2023-10-08T04:52:31;11.87;;;4.80;;
215;SDS011;70668;48.81286795;9.14184224;2023-10-08T04:55:10;13.73;;;5.30;;
215;SDS011;70668;48.81286795;9.14184224;2023-10-08T04:57:45;11.10;;;5.00;;
215;SDS011;70668;48.81286795;9.14184224;2023-10-08T05:00:17;11.70;;;4.50;;
215;SDS011;70668;48.81286795;9.14184224;2023-10-08T05:03:05;12.03;;;4.70;;
215;SDS011;70668;48.81286795;9.14184224;2023-10-08T05:05:39;14.67;;;5.57;;
215;SDS011;70668;48.81286795;9.14184224;2023-10-08T05:08:20;15.23;;;5.10;;
215;SDS011;70668;48.81286795;9.14184224;2023-10-08T05:10:58;13.60;;;5.00;;
215;SDS011;70668;48.81286795;9.14184224;2023-10-08T05:13:40;10.70;;;4.90;;
215;SDS011;70668;48.81286795;9.14184224;2023-10-08T05:16:24;9.90;;;4.80;;
215;SDS011;70668;48.81286795;9.14184224;2023-10-08T05:19:02;9.70;;;4.70;;
215;SDS011;70668;48.81286795;9.14184224;2023-10-08T05:22:13;13.80;;;4.50;;
215;SDS011;70668;48.81286795;9.14184224;2023-10-08T05:24:44;12.03;;;5.00;;
215;SDS011;70668;48.81286795;9.14184224;2023-10-08T05:27:31;11.03;;;4.73;;
215;SDS011;70668;48.81286795;9.14184224;2023-10-08T05:30:22;11.27;;;4.77;;
215;SDS011;70668;48.81286795;9.14184224;2023-10-08T05:33:06;16.60;;;4.80;;
215;SDS011;70668;48.81286795;9.14184224;2023-10-08T05:35:49;14.73;;;4.90;;
215;SDS011;70668;48.81286795;9.14184224;2023-10-08T05:38:20;13.10;;;5.03;;
215;SDS011;70668;48.81286795;9.14184224;2023-10-08T05:40:48;11.13;;;4.80;;
215;SDS011;70668;48.81286795;9.14184224;2023-10-08T05:43:42;14.17;;;5.30;;
215;SDS011;70668;48.81286795;9.14184224;2023-10-08T05:46:29;13.63;;;5.53;;
215;SDS011;70668;48.81286795;9.14184224;2023-10-08T05:49:15;12.60;;;5.70;;
215;SDS011;70668;48.81286795;9.14184224;2023-10-08T05:51:51;12.63;;;5.00;;
215;SDS011;70668;48.81286795;9.14184224;2023-10-08T05:54:47;13.53;;;5.90;;
215;SDS011;70668;48.81286795;9.14184224;2023-10-08T05:57:41;13.13;;;5.30;;
215;SDS011;70668;48.81286795;9.14184224;2023-10-08T06:00:12;12.10;;;5.20;;
215;SDS011;70668;48.81286795;9.14184224;2023-10-08T06:02:54;16.17;;;5.40;;
215;SDS011;70668;48.81286795;9.14184224;2023-10-08T06:06:00;11.10;;;5.07;;
215;SDS011;70668;48.81286795;9.14184224;2023-10-08T06:08:42;11.53;;;4.57;;
215;SDS011;70668;48.81286795;9.14184224;2023-10-08T06:11:17;12.70;;;5.33;;
215;SDS011;70668;48.81286795;9.14184224;2023-10-08T06:14:02;9.40;;;4.77;;
215;SDS011;70668;48.81286795;9.14184224;2023-10-08T06:16:39;11.70;;;4.90;;
215;SDS011;70668;48.81286795;9.14184224;2023-10-08T06:19:13;9.90;;;5.30;;
215;SDS011;70668;48.81286795;9.14184224;2023-10-08T06:21:44;14.97;;;5.37;;
215;SDS011;70668;48.81286795;9.14184224;2023-10-08T06:24:13;14.97;;;5.13;;
215;SDS011;70668;48.81286795;9.14184224;2023-10-08T06:26:42;11.83;;;5.27;;
215;SDS011;70668;48.81286795;9.14184224;2023-10-08T06:29:14;11.17;;;5.07;;
215;SDS011;70668;48.81286795;9.14184224;2023-10-08T06:31:55;11.90;;;5.03;;
215;SDS011;70668;48.81286795;9.14184224;2023-10-08T06:34:27;12.43;;;5.27;;
215;SDS011;70668;48.81286795;9.14184224;2023-10-08T06:36:59;12.53;;;5.00;;
215;SDS011;70668;48.81286795;9.14184224;2023-10-08T06:39:29;11.40;;;5.20;;
215;SDS011;70668;48.81286795;9.14184224;2023-10-08T06:42:12;13.37;;;5.13;;
215;SDS011;70668;48.81286795;9.14184224;2023-10-08T06:44:41;12.70;;;4.83;;
215;SDS011;70668;48.81286795;9.14184224;2023-10-08T06:47:11;9.53;;;4.97;;
215;SDS011;70668;48.81286795;9.14184224;2023-10-08T06:49:41;11.30;;;5.27;;
215;SDS011;70668;48.81286795;9.14184224;2023-10-08T06:52:12;16.90;;;6.50;;
215;SDS011;70668;48.81286795;9.14184224;2023-10-08T06:54:40;10.20;;;5.37;;
215;SDS011;70668;48.81286795;9.14184224;2023-10-08T06:57:09;13.47;;;5.60;;
215;SDS011;70668;48.81286795;9.14184224;2023-10-08T06:59:39;13.70;;;6.20;;
215;SDS011;70668;48.81286795;9.14184224;2023-10-08T07:02:08;13.87;;;6.00;;
215;SDS011;70668;48.81286795;9.14184224;2023-10-08T07:04:36;16.03;;;7.30;;
215;SDS011;70668;48.81286795;9.14184224;2023-10-08T07:07:06;16.00;;;6.23;;
215;SDS011;70668;48.81286795;9.14184224;2023-10-08T07:09:37;13.13;;;6.40;;
215;SDS011;70668;48.81286795;9.14184224;2023-10-08T07:12:09;11.70;;;5.03;;
215;SDS011;70668;48.81286795;9.14184224;2023-10-08T07:14:39;12.33;;;5.07;;
215;SDS011;70668;48.81286795;9.14184224;2023-10-08T07:17:08;13.63;;;6.00;;
215;SDS011;70668;48.81286795;9.14184224;2023-10-08T07:19:45;15.93;;;7.27;;
215;SDS011;70668;48.81286795;9.14184224;2023-10-08T07:22:16;15.07;;;6.87;;
215;SDS011;70668;48.81286795;9.14184224;2023-10-08T07:24:50;13.03;;;7.57;;
215;SDS011;70668;48.81286795;9.14184224;2023-10-08T07:27:19;14.47;;;7.93;;
215;SDS011;70668;48.81286795;9.14184224;2023-10-08T07:29:55;15.30;;;7.93;;
215;SDS011;70668;48.81286795;9.14184224;2023-10-08T07:32:27;13.57;;;7.30;;
215;SDS011;70668;48.81286795;9.14184224;2023-10-08T07:34:55;16.23;;;7.40;;
215;SDS011;70668;48.81286795;9.14184224;2023-10-08T07:37:41;18.60;;;7.70;;
215;SDS011;70668;48.81286795;9.14184224;2023-10-08T07:40:13;19.47;;;7.73;;
215;SDS011;70668;48.81286795;9.14184224;2023-10-08T07:42:41;13.10;;;7.20;;
215;SDS011;70668;48.81286795;9.14184224;2023-10-08T07:45:13;13.63;;;7.13;;
215;SDS011;70668;48.81286795;9.14184224;2023-10-08T07:47:43;12.90;;;6.60;;
215;SDS011;70668;48.81286795;9.14184224;2023-10-08T07:50:13;13.07;;;6.90;;
215;SDS011;70668;48.81286795;9.14184224;2023-10-08T07:52:42;16.07;;;6.97;;
215;SDS011;70668;48.81286795;9.14184224;2023-10-08T07:55:13;14.23;;;7.07;;
215;SDS011;70668;48.81286795;9.14184224;2023-10-08T07:57:43;14.80;;;7.00;;
215;SDS011;70668;48.81286795;9.14184224;2023-10-08T08:00:12;15.93;;;6.70;;
215;SDS011;70668;48.81286795;9.14184224;2023-10-08T08:02:51;16.43;;;6.47;;
215;SDS011;70668;48.81286795;9.14184224;2023-10-08T08:05:22;14.43;;;6.43;;
215;SDS011;70668;48.81286795;9.14184224;2023-10-08T08:07:50;15.13;;;6.50;;
215;SDS011;70668;48.81286795;9.14184224;2023-10-08T08:10:24;13.50;;;6.50;;
215;SDS011;70668;48.81286795;9.14184224;2023-10-08T08:12:53;14.67;;;6.13;;
215;SDS011;70668;48.81286795;9.14184224;2023-10-08T08:15:21;14.77;;;6.80;;
215;SDS011;70668;48.81286795;9.14184224;2023-10-08T08:17:52;15.90;;;6.70;;
215;SDS011;70668;48.81286795;9.14184224;2023-10-08T08:20:21;18.47;;;5.97;;
215;SDS011;70668;48.81286795;9.14184224;2023-10-08T08:22:59;12.73;;;4.80;;
215;SDS011;70668;48.81286795;9.14184224;2023-10-08T08:25:37;13.70;;;5.10;;
215;SDS011;70668;48.81286795;9.14184224;2023-10-08T08:28:11;10.90;;;4.70;;
215;SDS011;70668;48.81286795;9.14184224;2023-10-08T08:30:42;12.13;;;5.17;;
215;SDS011;70668;48.81286795;9.14184224;2023-10-08T08:33:13;13.03;;;5.13;;
215;SDS011;70668;48.81286795;9.14184224;2023-10-08T08:35:47;12.50;;;5.50;;
215;SDS011;70668;48.81286795;9.14184224;2023-10-08T08:38:25;13.33;;;5.43;;
215;SDS011;70668;48.81286795;9.14184224;2023-10-08T08:41:03;13.03;;;5.70;;
215;SDS011;70668;48.81286795;9.14184224;2023-10-08T08:43:37;10.40;;;5.30;;
215;SDS011;70668;48.81286795;9.14184224;2023-10-08T08:46:09;13.47;;;5.67;;
215;SDS011;70668;48.81286795;9.14184224;2023-10-08T08:48:40;11.77;;;5.30;;
215;SDS011;70668;48.81286795;9.14184224;2023-10-08T08:51:10;13.70;;;5.03;;
215;SDS011;70668;48.81286795;9.14184224;2023-10-08T08:53:39;11.53;;;5.37;;
215;SDS011;70668;48.81286795;9.14184224;2023-10-08T08:56:11;16.43;;;5.00;;
215;SDS011;70668;48.81286795;9.14184224;2023-10-08T08:58:41;14.47;;;5.60;;
215;SDS011;70668;48.81286795;9.14184224;2023-10-08T09:01:11;17.13;;;6.10;;
215;SDS011;70668;48.81286795;9.14184224;2023-10-08T09:03:42;14.23;;;5.80;;
215;SDS011;70668;48.81286795;9.14184224;2023-10-08T09:06:13;11.97;;;5.50;;
215;SDS011;70668;48.81286795;9.14184224;2023-10-08T09:08:41;12.33;;;5.63;;
215;SDS011;70668;48.81286795;9.14184224;2023-10-08T09:11:16;12.67;;;5.67;;
215;SDS011;70668;48.81286795;9.14184224;2023-10-08T09:13:45;15.93;;;6.10;;
215;SDS011;70668;48.81286795;9.14184224;2023-10-08T09:16:14;11.57;;;5.07;;
215;SDS011;70668;48.81286795;9.14184224;2023-10-08T09:18:43;13.83;;;5.40;;
215;SDS011;70668;48.81286795;9.14184224;2023-10-08T09:21:14;10.47;;;4.60;;
215;SDS011;70668;48.81286795;9.14184224;2023-10-08T09:23:44;9.80;;;4.40;;
215;SDS011;70668;48.81286795;9.14184224;2023-10-08T09:26:22;10.87;;;5.30;;
215;SDS011;70668;48.81286795;9.14184224;2023-10-08T09:28:52;10.47;;;5.03;;
215;SDS011;70668;48.81286795;9.14184224;2023-10-08T09:31:22;11.17;;;4.67;;
215;SDS011;70668;48.81286795;9.14184224;2023-10-08T09:33:53;11.27;;;5.47;;
215;SDS011;70668;48.81286795;9.14184224;2023-10-08T09:36:22;13.07;;;5.10;;
215;SDS011;70668;48.81286795;9.14184224;2023-10-08T09:38:57;10.27;;;4.53;;
215;SDS011;70668;48.81286795;9.14184224;2023-10-08T09:41:32;9.70;;;4.67;;
215;SDS011;70668;48.81286795;9.14184224;2023-10-08T09:44:01;14.17;;;4.67;;
215;SDS011;70668;48.81286795;9.14184224;2023-10-08T09:46:35;13.10;;;4.80;;
215;SDS011;70668;48.81286795;9.14184224;2023-10-08T09:49:05;11.30;;;4.70;;
215;SDS011;70668;48.81286795;9.14184224;2023-10-08T09:51:39;15.03;;;4.63;;
215;SDS011;70668;48.81286795;9.14184224;2023-10-08T09:54:09;8.63;;;4.30;;
215;SDS011;70668;48.81286795;9.14184224;2023-10-08T09:56:41;10.87;;;4.53;;
215;SDS011;70668;48.81286795;9.14184224;2023-10-08T09:59:11;11.90;;;5.00;;
215;SDS011;70668;48.81286795;9.14184224;2023-10-08T10:01:41;13.77;;;4.60;;
215;SDS011;70668;48.81286795;9.14184224;2023-10-08T10:04:12;11.63;;;5.00;;
215;SDS011;70668;48.81286795;9.14184224;2023-10-08T10:06:51;10.37;;;5.30;;
215;SDS011;70668;48.81286795;9.14184224;2023-10-08T10:09:20;16.33;;;5.83;;
215;SDS011;70668;48.81286795;9.14184224;2023-10-08T10:11:53;9.30;;;5.03;;
215;SDS011;70668;48.81286795;9.14184224;2023-10-08T10:14:23;10.93;;;4.43;;
215;SDS011;70668;48.81286795;9.14184224;2023-10-08T10:19:37;10.70;;;4.90;;
215;SDS011;70668;48.81286795;9.14184224;2023-10-08T10:22:11;11.13;;;4.80;;
215;SDS011;70668;48.81286795;9.14184224;2023-10-08T10:24:41;10.63;;;4.87;;
215;SDS011;70668;48.81286795;9.14184224;2023-10-08T10:27:14;14.83;;;4.90;;
215;SDS011;70668;48.81286795;9.14184224;2023-10-08T10:29:44;11.87;;;4.57;;
215;SDS011;70668;48.81286795;9.14184224;2023-10-08T10:32:13;12.77;;;4.90;;
215;SDS011;70668;48.81286795;9.14184224;2023-10-08T10:34:44;10.87;;;5.03;;
215;SDS011;70668;48.81286795;9.14184224;2023-10-08T10:37:18;14.00;;;4.50;;
215;SDS011;70668;48.81286795;9.14184224;2023-10-08T10:39:51;8.77;;;4.37;;
215;SDS011;70668;48.81286795;9.14184224;2023-10-08T10:42:27;10.30;;;4.90;;
215;SDS011;70668;48.81286795;9.14184224;2023-10-08T10:44:56;11.37;;;4.70;;
215;SDS011;70668;48.81286795;9.14184224;2023-10-08T10:47:26;10.70;;;4.53;;
215;SDS011;70668;48.81286795;9.14184224;2023-10-08T10:50:08;9.43;;;4.20;;
215;SDS011;70668;48.81286795;9.14184224;2023-10-08T10:52:51;11.40;;;4.73;;
215;SDS011;70668;48.81286795;9.14184224;2023-10-08T10:55:21;14.20;;;4.40;;
215;SDS011;70668;48.81286795;9.14184224;2023-10-08T10:57:59;11.10;;;4.70;;
215;SDS011;70668;48.81286795;9.14184224;2023-10-08T11:00:41;12.43;;;4.70;;
215;SDS011;70668;48.81286795;9.14184224;2023-10-08T11:03:22;12.97;;;4.80;;
215;SDS011;70668;48.81286795;9.14184224;2023-10-08T11:05:55;8.80;;;4.83;;
215;SDS011;70668;48.81286795;9.14184224;2023-10-08T11:08:25;12.57;;;5.00;;
215;SDS011;70668;48.81286795;9.14184224;2023-10-08T11:10:59;12.90;;;4.87;;
215;SDS011;70668;48.81286795;9.14184224;2023-10-08T11:13:34;10.77;;;5.17;;
215;SDS011;70668;48.81286795;9.14184224;2023-10-08T11:16:06;9.53;;;4.80;;
215;SDS011;70668;48.81286795;9.14184224;2023-10-08T11:18:42;10.50;;;4.93;;
215;SDS011;70668;48.81286795;9.14184224;2023-10-08T11:21:12;11.77;;;5.37;;
215;SDS011;70668;48.81286795;9.14184224;2023-10-08T11:23:50;16.10;;;5.53;;
215;SDS011;70668;48.81286795;9.14184224;2023-10-08T11:26:24;16.70;;;5.00;;
215;SDS011;70668;48.81286795;9.14184224;2023-10-08T11:29:06;10.53;;;4.70;;
215;SDS011;70668;48.81286795;9.14184224;2023-10-08T11:31:40;14.90;;;5.40;;
215;SDS011;70668;48.81286795;9.14184224;2023-10-08T11:34:10;14.13;;;5.00;;
215;SDS011;70668;48.81286795;9.14184224;2023-10-08T11:36:39;14.90;;;4.80;;
215;SDS011;70668;48.81286795;9.14184224;2023-10-08T11:39:18;16.37;;;5.53;;
215;SDS011;70668;48.81286795;9.14184224;2023-10-08T11:41:56;11.60;;;5.53;;
215;SDS011;70668;48.81286795;9.14184224;2023-10-08T11:44:31;13.30;;;5.60;;
215;SDS011;70668;48.81286795;9.14184224;2023-10-08T11:47:01;19.13;;;5.20;;
215;SDS011;70668;48.81286795;9.14184224;2023-10-08T11:49:37;11.57;;;5.33;;
215;SDS011;70668;48.81286795;9.14184224;2023-10-08T11:52:12;13.27;;;5.57;;
215;SDS011;70668;48.81286795;9.14184224;2023-10-08T11:54:40;18.00;;;6.00;;
215;SDS011;70668;48.81286795;9.14184224;2023-10-08T11:57:09;12.60;;;5.93;;
215;SDS011;70668;48.81286795;9.14184224;2023-10-08T11:59:41;14.10;;;4.70;;
215;SDS011;70668;48.81286795;9.14184224;2023-10-08T12:02:12;20.83;;;5.83;;
215;SDS011;70668;48.81286795;9.14184224;2023-10-08T12:04:42;22.20;;;5.20;;
215;SDS011;70668;48.81286795;9.14184224;2023-10-08T12:07:12;30.27;;;5.87;;
215;SDS011;70668;48.81286795;9.14184224;2023-10-08T12:09:42;26.20;;;5.80;;
215;SDS011;70668;48.81286795;9.14184224;2023-10-08T12:12:13;15.87;;;5.97;;
215;SDS011;70668;48.81286795;9.14184224;2023-10-08T12:14:50;13.90;;;5.77;;
215;SDS011;70668;48.81286795;9.14184224;2023-10-08T12:17:20;11.37;;;5.80;;
215;SDS011;70668;48.81286795;9.14184224;2023-10-08T12:20:02;13.50;;;5.40;;
215;SDS011;70668;48.81286795;9.14184224;2023-10-08T12:22:48;15.03;;;5.30;;
215;SDS011;70668;48.81286795;9.14184224;2023-10-08T12:25:17;15.23;;;6.03;;
215;SDS011;70668;48.81286795;9.14184224;2023-10-08T12:27:45;14.57;;;5.40;;
215;SDS011;70668;48.81286795;9.14184224;2023-10-08T12:30:17;17.57;;;5.40;;
215;SDS011;70668;48.81286795;9.14184224;2023-10-08T12:32:55;18.00;;;6.10;;
215;SDS011;70668;48.81286795;9.14184224;2023-10-08T12:35:25;19.53;;;5.40;;
215;SDS011;70668;48.81286795;9.14184224;2023-10-08T12:37:54;21.03;;;5.90;;
215;SDS011;70668;48.81286795;9.14184224;2023-10-08T12:40:23;17.17;;;5.70;;
215;SDS011;70668;48.81286795;9.14184224;2023-10-08T12:43:07;15.73;;;5.90;;
215;SDS011;70668;48.81286795;9.14184224;2023-10-08T12:45:38;23.47;;;6.00;;
215;SDS011;70668;48.81286795;9.14184224;2023-10-08T12:48:07;28.43;;;6.30;;
215;SDS011;70668;48.81286795;9.14184224;2023-10-08T12:50:39;19.90;;;6.00;;
215;SDS011;70668;48.81286795;9.14184224;2023-10-08T12:53:10;26.13;;;7.00;;
215;SDS011;70668;48.81286795;9.14184224;2023-10-08T12:55:41;27.27;;;6.00;;
215;SDS011;70668;48.81286795;9.14184224;2023-10-08T12:58:11;24.50;;;6.70;;
215;SDS011;70668;48.81286795;9.14184224;2023-10-08T13:00:44;21.33;;;7.50;;
215;SDS011;70668;48.81286795;9.14184224;2023-10-08T13:03:15;22.50;;;6.67;;
215;SDS011;70668;48.81286795;9.14184224;2023-10-08T13:05:48;25.57;;;6.07;;
215;SDS011;70668;48.81286795;9.14184224;2023-10-08T13:08:18;19.67;;;6.03;;
215;SDS011;70668;48.81286795;9.14184224;2023-10-08T13:10:46;33.43;;;6.70;;
215;SDS011;70668;48.81286795;9.14184224;2023-10-08T13:13:17;27.23;;;5.63;;
215;SDS011;70668;48.81286795;9.14184224;2023-10-08T13:15:49;25.13;;;5.60;;
215;SDS011;70668;48.81286795;9.14184224;2023-10-08T13:18:21;31.70;;;6.77;;
215;SDS011;70668;48.81286795;9.14184224;2023-10-08T13:20:50;23.67;;;5.97;;
215;SDS011;70668;48.81286795;9.14184224;2023-10-08T13:23:19;19.40;;;5.93;;
215;SDS011;70668;48.81286795;9.14184224;2023-10-08T13:25:49;28.20;;;5.93;;
215;SDS011;70668;48.81286795;9.14184224;2023-10-08T13:28:19;30.83;;;6.37;;
215;SDS011;70668;48.81286795;9.14184224;2023-10-08T13:30:51;28.67;;;5.40;;
215;SDS011;70668;48.81286795;9.14184224;2023-10-08T13:33:20;21.90;;;5.60;;
215;SDS011;70668;48.81286795;9.14184224;2023-10-08T13:35:49;26.77;;;4.93;;
215;SDS011;70668;48.81286795;9.14184224;2023-10-08T13:38:18;28.90;;;6.00;;